createdAt,value
2017-07-18T00:00:03.734Z,1002.33
2017-07-18T00:01:14.097Z,1002.34
2017-07-18T00:02:24.466Z,1002.32
2017-07-18T00:03:34.525Z,1002.33
2017-07-18T00:04:44.910Z,1002.33
2017-07-18T00:05:54.969Z,1002.31
2017-07-18T00:07:05.445Z,1002.32
2017-07-18T00:08:15.811Z,1002.33
2017-07-18T00:09:26.343Z,1002.31
2017-07-18T00:10:36.708Z,1002.3
2017-07-18T00:11:46.768Z,1002.31
2017-07-18T00:12:56.495Z,1002.36
2017-07-18T00:14:06.860Z,1002.36
2017-07-18T00:15:17.225Z,1002.35
2017-07-18T00:16:27.260Z,1002.38
2017-07-18T00:17:37.673Z,1002.34
2017-07-18T00:18:48.033Z,1002.35
2017-07-18T00:19:58.377Z,1002.35
2017-07-18T00:21:08.731Z,1002.36
2017-07-18T00:22:18.751Z,1002.35
2017-07-18T00:23:29.100Z,1002.4
2017-07-18T00:24:38.824Z,1002.4
2017-07-18T00:25:48.889Z,1002.4
2017-07-18T00:26:59.292Z,1002.39
2017-07-18T00:28:09.648Z,1002.41
2017-07-18T00:29:20.051Z,1002.39
2017-07-18T00:30:30.416Z,1002.36
2017-07-18T00:31:40.489Z,1002.36
2017-07-18T00:32:50.823Z,1002.36
2017-07-18T00:34:00.552Z,1002.37
2017-07-18T00:35:10.968Z,1002.34
2017-07-18T00:36:21.310Z,1002.34
2017-07-18T00:37:31.368Z,1002.34
2017-07-18T00:38:41.441Z,1002.35
2017-07-18T00:39:51.798Z,1002.32
2017-07-18T00:41:02.155Z,1002.29
2017-07-18T00:42:12.581Z,1002.32
2017-07-18T00:43:22.662Z,1002.31
2017-07-18T00:44:33.013Z,1002.3
2017-07-18T00:45:43.507Z,1002.26
2017-07-18T00:46:53.546Z,1002.29
2017-07-18T00:48:03.896Z,1002.3
2017-07-18T00:49:13.956Z,1002.3
2017-07-18T00:50:24.333Z,1002.29
2017-07-18T00:51:34.679Z,1002.29
2017-07-18T00:52:45.091Z,1002.29
2017-07-18T00:53:55.444Z,1002.29
2017-07-18T00:55:05.481Z,1002.29
2017-07-18T00:56:15.832Z,1002.34
2017-07-18T00:57:25.570Z,1002.32
2017-07-18T00:58:36.010Z,1002.31
2017-07-18T00:59:46.390Z,1002.34
2017-07-18T01:00:56.735Z,1002.31
2017-07-18T01:02:07.107Z,1002.33
2017-07-18T01:03:17.139Z,1002.3
2017-07-18T01:04:27.541Z,1002.27
2017-07-18T01:05:37.896Z,1002.28
2017-07-18T01:06:47.947Z,1002.3
2017-07-18T01:07:57.990Z,1002.3
2017-07-18T01:09:08.039Z,1002.32
2017-07-18T01:10:18.377Z,1002.27
2017-07-18T01:11:28.742Z,1002.25
2017-07-18T01:12:38.788Z,1002.25
2017-07-18T01:13:49.154Z,1002.26
2017-07-18T01:14:59.496Z,1002.23
2017-07-18T01:16:09.838Z,1002.23
2017-07-18T01:17:19.879Z,1002.18
2017-07-18T01:18:30.221Z,1002.22
2017-07-18T01:19:40.575Z,1002.2
2017-07-18T01:20:50.929Z,1002.22
2017-07-18T01:22:00.980Z,1002.23
2017-07-18T01:23:11.337Z,1002.22
2017-07-18T01:24:21.381Z,1002.24
2017-07-18T01:25:31.449Z,1002.23
2017-07-18T01:26:41.792Z,1002.19
2017-07-18T01:27:51.576Z,1002.18
2017-07-18T01:29:01.915Z,1002.22
2017-07-18T01:30:12.272Z,1002.21
2017-07-18T01:31:22.630Z,1002.2
2017-07-18T01:32:32.658Z,1002.21
2017-07-18T01:33:43.019Z,1002.19
2017-07-18T01:34:53.380Z,1002.17
2017-07-18T01:36:03.723Z,1002.19
2017-07-18T01:37:14.074Z,1002.17
2017-07-18T01:38:24.429Z,1002.14
2017-07-18T01:39:34.527Z,1002.15
2017-07-18T01:40:44.872Z,1002.16
2017-07-18T01:41:55.246Z,1002.13
2017-07-18T01:43:05.596Z,1002.13
2017-07-18T01:44:15.946Z,1002.12
2017-07-18T01:45:26.345Z,1002.15
2017-07-18T01:46:36.688Z,1002.2
2017-07-18T01:47:46.748Z,1002.17
2017-07-18T01:48:57.101Z,1002.21
2017-07-18T01:50:07.449Z,1002.2
2017-07-18T01:51:17.870Z,1002.19
2017-07-18T01:52:28.208Z,1002.21
2017-07-18T01:53:38.565Z,1002.23
2017-07-18T01:54:48.899Z,1002.2
2017-07-18T01:55:58.930Z,1002.21
2017-07-18T01:57:09.335Z,1002.27
2017-07-18T01:58:19.692Z,1002.17
2017-07-18T01:59:30.040Z,1002.16
2017-07-18T02:00:40.383Z,1002.17
2017-07-18T02:01:50.763Z,1002.15
2017-07-18T02:03:01.158Z,1002.17
2017-07-18T02:04:11.204Z,1002.16
2017-07-18T02:05:21.233Z,1002.14
2017-07-18T02:06:31.588Z,1002.13
2017-07-18T02:07:41.939Z,1002.12
2017-07-18T02:08:51.967Z,1002.1
2017-07-18T02:10:02.329Z,1002.1
2017-07-18T02:11:12.367Z,1002.12
2017-07-18T02:12:22.723Z,1002.12
2017-07-18T02:13:33.114Z,1002.1
2017-07-18T02:14:43.215Z,1002.1
2017-07-18T02:15:53.582Z,1002.08
2017-07-18T02:17:03.930Z,1002.1
2017-07-18T02:18:14.295Z,1002.14
2017-07-18T02:19:24.670Z,1002.11
2017-07-18T02:20:34.738Z,1002.1
2017-07-18T02:21:45.095Z,1002.12
2017-07-18T02:22:55.454Z,1002.08
2017-07-18T02:24:05.799Z,1002.12
2017-07-18T02:25:16.147Z,1002.09
2017-07-18T02:26:26.238Z,1002.07
2017-07-18T02:27:36.278Z,1002.09
2017-07-18T02:28:46.612Z,1002.09
2017-07-18T02:29:56.894Z,1002.11
2017-07-18T02:31:06.573Z,1002.12
2017-07-18T02:32:16.851Z,1002.11
2017-07-18T02:33:26.853Z,1002.08
2017-07-18T02:34:37.145Z,1002.13
2017-07-18T02:35:47.441Z,1002.16
2017-07-18T02:36:57.737Z,1002.14
2017-07-18T02:38:08.238Z,1002.15
2017-07-18T02:39:18.548Z,1002.11
2017-07-18T02:40:28.820Z,1002.11
2017-07-18T02:41:39.119Z,1002.11
2017-07-18T02:42:49.098Z,1002.09
2017-07-18T02:43:59.444Z,1002.13
2017-07-18T02:45:09.741Z,1002.12
2017-07-18T02:46:19.721Z,1002.15
2017-07-18T02:47:30.025Z,1002.14
2017-07-18T02:48:40.015Z,1002.13
2017-07-18T02:49:50.069Z,1002.13
2017-07-18T02:51:00.049Z,1002.14
2017-07-18T02:52:10.345Z,1002.15
2017-07-18T02:53:20.655Z,1002.19
2017-07-18T02:54:30.631Z,1002.16
2017-07-18T02:55:40.926Z,1002.15
2017-07-18T02:56:51.202Z,1002.16
2017-07-18T02:58:01.485Z,1002.18
2017-07-18T02:59:11.794Z,1002.17
2017-07-18T03:00:22.081Z,1002.2
2017-07-18T03:01:32.377Z,1002.21
2017-07-18T03:32:48.712Z,1002.3
2017-07-18T03:33:58.707Z,1002.31
2017-07-18T03:35:08.991Z,1002.3
2017-07-18T03:36:19.266Z,1002.31
2017-07-18T03:37:29.555Z,1002.3
2017-07-18T03:38:39.889Z,1002.3
2017-07-18T03:39:49.877Z,1002.33
2017-07-18T03:40:59.851Z,1002.3
2017-07-18T03:42:10.140Z,1002.3
2017-07-18T03:43:20.433Z,1002.33
2017-07-18T03:44:30.778Z,1002.35
2017-07-18T03:45:40.763Z,1002.33
2017-07-18T03:46:50.747Z,1002.34
2017-07-18T03:48:00.426Z,1002.34
2017-07-18T03:49:10.743Z,1002.34
2017-07-18T03:50:20.768Z,1002.36
2017-07-18T03:51:31.051Z,1002.39
2017-07-18T03:52:41.025Z,1002.38
2017-07-18T03:53:51.352Z,1002.4
2017-07-18T03:55:01.669Z,1002.42
2017-07-18T03:56:11.966Z,1002.38
2017-07-18T03:57:22.266Z,1002.41
2017-07-18T03:58:32.568Z,1002.42
2017-07-18T03:59:42.555Z,1002.39
2017-07-18T04:00:52.538Z,1002.39
2017-07-18T04:02:02.859Z,1002.39
2017-07-18T04:03:12.850Z,1002.38
2017-07-18T04:04:22.511Z,1002.37
2017-07-18T04:05:32.507Z,1002.39
2017-07-18T04:06:42.799Z,1002.4
2017-07-18T04:07:53.164Z,1002.38
2017-07-18T04:09:03.149Z,1002.4
2017-07-18T04:10:13.458Z,1002.39
2017-07-18T04:11:23.752Z,1002.39
2017-07-18T04:12:34.040Z,1002.4
2017-07-18T04:13:44.066Z,1002.4
2017-07-18T04:14:54.361Z,1002.42
2017-07-18T04:16:04.657Z,1002.39
2017-07-18T04:17:14.663Z,1002.43
2017-07-18T04:18:24.951Z,1002.43
2017-07-18T04:19:35.298Z,1002.44
2017-07-18T04:20:45.588Z,1002.45
2017-07-18T04:21:55.906Z,1002.48
2017-07-18T04:23:06.189Z,1002.5
2017-07-18T04:24:16.493Z,1002.55
2017-07-18T04:25:26.513Z,1002.53
2017-07-18T04:26:36.805Z,1002.53
2017-07-18T04:27:46.805Z,1002.62
2017-07-18T04:28:57.083Z,1002.99
2017-07-18T04:30:07.376Z,1003.19
2017-07-18T04:31:17.661Z,1003.19
2017-07-18T04:32:27.948Z,1003.3
2017-07-18T04:33:38.256Z,1003.35
2017-07-18T04:34:48.537Z,1003.23
2017-07-18T04:35:58.515Z,1003.19
2017-07-18T04:37:08.533Z,1003.21
2017-07-18T04:38:18.804Z,1003.21
2017-07-18T04:39:29.093Z,1003.23
2017-07-18T04:40:39.379Z,1003.25
2017-07-18T04:41:49.689Z,1003.32
2017-07-18T04:42:59.721Z,1003.23
2017-07-18T04:44:09.699Z,1003.2
2017-07-18T04:45:20.021Z,1003.13
2017-07-18T04:46:30.316Z,1003.11
2017-07-18T04:47:40.611Z,1003.11
2017-07-18T04:48:50.938Z,1002.98
2017-07-18T04:50:01.247Z,1003.01
2017-07-18T04:51:11.579Z,1003
2017-07-18T04:52:21.868Z,1003
2017-07-18T04:53:32.159Z,1003.01
2017-07-18T04:54:42.440Z,1003.01
2017-07-18T04:55:52.738Z,1003.03
2017-07-18T04:57:03.017Z,1003.04
2017-07-18T04:58:12.995Z,1003.08
2017-07-18T04:59:23.340Z,1003.09
2017-07-18T05:00:33.035Z,1003.09
2017-07-18T05:01:43.034Z,1003.13
2017-07-18T05:02:53.331Z,1003.13
2017-07-18T05:04:03.635Z,1003.15
2017-07-18T05:05:13.625Z,1003.12
2017-07-18T05:06:23.980Z,1003.1
2017-07-18T05:07:33.971Z,1003.13
2017-07-18T05:08:43.965Z,1003.15
2017-07-18T05:09:53.960Z,1003.15
2017-07-18T05:11:03.956Z,1003.24
2017-07-18T05:12:13.990Z,1003.24
2017-07-18T05:13:24.308Z,1003.25
2017-07-18T05:14:34.625Z,1003.2
2017-07-18T05:15:44.944Z,1003.17
2017-07-18T05:16:55.292Z,1003.11
2017-07-18T05:18:05.915Z,1003.07
2017-07-18T05:19:16.208Z,1003.06
2017-07-18T05:20:26.491Z,1003.03
2017-07-18T05:21:36.820Z,1003.08
2017-07-18T05:22:47.109Z,1003.09
2017-07-18T05:23:57.408Z,1003.11
2017-07-18T05:25:07.704Z,1003.1
2017-07-18T05:26:17.703Z,1003.1
2017-07-18T05:27:27.698Z,1003.08
2017-07-18T05:28:37.990Z,1003.08
2017-07-18T05:29:48.330Z,1003.09
2017-07-18T05:30:58.310Z,1003.09
2017-07-18T05:32:08.621Z,1003.08
2017-07-18T05:33:18.925Z,1003.09
2017-07-18T05:34:29.217Z,1003.12
2017-07-18T05:35:38.890Z,1003.13
2017-07-18T05:36:48.255Z,1003.13
2017-07-18T05:37:57.943Z,1003.13
2017-07-18T05:39:07.943Z,1003.13
2017-07-18T05:40:18.242Z,1003.07
2017-07-18T05:41:28.609Z,1003.05
2017-07-18T05:42:38.898Z,1003.06
2017-07-18T05:43:48.877Z,1003.04
2017-07-18T05:44:58.865Z,1003.04
2017-07-18T05:46:08.850Z,1003.01
2017-07-18T05:47:19.198Z,1003
2017-07-18T05:48:29.492Z,1003.02
2017-07-18T05:49:39.800Z,1003.03
2017-07-18T05:50:50.081Z,1003.02
2017-07-18T05:52:00.389Z,1003.03
2017-07-18T05:53:10.852Z,1003.04
2017-07-18T05:54:21.151Z,1003.06
2017-07-18T05:55:30.930Z,1003.07
2017-07-18T05:56:41.217Z,1003.04
2017-07-18T05:57:50.893Z,1003.02
2017-07-18T05:59:01.190Z,1002.99
2017-07-18T06:00:11.488Z,1003.21
2017-07-18T06:01:21.480Z,1003.73
2017-07-18T06:02:31.795Z,1003.9
2017-07-18T06:03:42.106Z,1003.64
2017-07-18T06:04:52.403Z,1003.6
2017-07-18T06:06:02.711Z,1003.61
2017-07-18T06:07:13.028Z,1003.47
2017-07-18T06:08:23.320Z,1003.41
2017-07-18T06:09:33.340Z,1003.32
2017-07-18T06:10:43.631Z,1003.36
2017-07-18T06:11:53.949Z,1003.45
2017-07-18T06:13:04.231Z,1003.45
2017-07-18T06:14:14.237Z,1003.38
2017-07-18T06:15:24.556Z,1003.38
2017-07-18T06:16:34.861Z,1003.4
2017-07-18T06:17:44.862Z,1003.38
2017-07-18T06:18:55.167Z,1003.4
2017-07-18T06:20:05.167Z,1003.24
2017-07-18T06:21:15.498Z,1002.92
2017-07-18T06:22:25.188Z,1002.67
2017-07-18T06:23:35.492Z,1002.64
2017-07-18T06:24:45.782Z,1002.57
2017-07-18T06:25:56.095Z,1002.61
2017-07-18T06:27:06.383Z,1002.63
2017-07-18T06:28:16.753Z,1002.68
2017-07-18T06:29:26.439Z,1002.66
2017-07-18T06:30:36.776Z,1002.6
2017-07-18T06:31:46.767Z,1002.54
2017-07-18T06:32:57.057Z,1002.57
2017-07-18T06:34:07.366Z,1002.61
2017-07-18T06:35:17.369Z,1002.79
2017-07-18T06:36:27.651Z,1002.88
2017-07-18T06:37:37.626Z,1002.8
2017-07-18T06:38:47.915Z,1002.8
2017-07-18T06:39:57.962Z,1002.81
2017-07-18T06:41:08.263Z,1002.75
2017-07-18T06:42:18.572Z,1002.7
2017-07-18T06:43:28.864Z,1002.68
2017-07-18T06:44:39.159Z,1002.63
2017-07-18T06:45:49.465Z,1002.62
2017-07-18T06:46:59.155Z,1002.62
2017-07-18T06:48:09.467Z,1002.59
2017-07-18T06:49:19.476Z,1002.55
2017-07-18T06:50:29.788Z,1002.6
2017-07-18T06:51:40.151Z,1002.58
2017-07-18T06:52:50.141Z,1002.6
2017-07-18T06:54:00.444Z,1002.55
2017-07-18T06:55:10.745Z,1002.56
2017-07-18T06:56:21.062Z,1002.54
2017-07-18T06:57:31.368Z,1002.54
2017-07-18T06:58:41.690Z,1002.5
2017-07-18T06:59:51.991Z,1002.51
2017-07-18T07:01:02.278Z,1002.49
2017-07-18T07:02:12.591Z,1002.5
2017-07-18T07:03:22.895Z,1002.47
2017-07-18T07:04:33.185Z,1002.5
2017-07-18T07:05:43.480Z,1002.45
2017-07-18T07:06:53.462Z,1002.48
2017-07-18T07:08:03.759Z,1002.45
2017-07-18T07:09:14.059Z,1002.46
2017-07-18T07:10:24.350Z,1002.47
2017-07-18T07:11:34.681Z,1002.4
2017-07-18T07:12:44.964Z,1002.45
2017-07-18T07:13:55.262Z,1002.48
2017-07-18T07:15:05.631Z,1002.41
2017-07-18T07:16:15.310Z,1002.41
2017-07-18T07:17:25.003Z,1002.44
2017-07-18T07:18:35.286Z,1002.44
2017-07-18T07:19:45.576Z,1002.42
2017-07-18T07:20:55.609Z,1002.38
2017-07-18T07:22:05.911Z,1002.44
2017-07-18T07:23:16.212Z,1002.43
2017-07-18T07:24:26.223Z,1002.44
2017-07-18T07:25:36.536Z,1002.46
2017-07-18T07:26:46.836Z,1002.42
2017-07-18T07:27:57.147Z,1002.46
2017-07-18T07:29:07.448Z,1002.46
2017-07-18T07:30:17.431Z,1002.45
2017-07-18T07:31:27.720Z,1002.4
2017-07-18T07:32:38.032Z,1002.43
2017-07-18T07:33:48.323Z,1002.46
2017-07-18T07:34:58.610Z,1002.44
2017-07-18T07:36:08.615Z,1002.44
2017-07-18T07:37:18.619Z,1002.42
2017-07-18T07:38:28.974Z,1002.4
2017-07-18T07:39:39.302Z,1002.47
2017-07-18T07:40:49.269Z,1002.46
2017-07-18T07:41:59.572Z,1002.44
2017-07-18T07:43:09.867Z,1002.43
2017-07-18T07:44:19.600Z,1002.42
2017-07-18T07:45:29.901Z,1002.47
2017-07-18T07:46:40.207Z,1002.44
2017-07-18T07:47:50.504Z,1002.46
2017-07-18T07:49:00.795Z,1002.41
2017-07-18T07:50:11.078Z,1002.46
2017-07-18T07:51:21.377Z,1002.43
2017-07-18T07:52:31.669Z,1002.42
2017-07-18T07:53:41.952Z,1002.39
2017-07-18T07:54:52.243Z,1002.4
2017-07-18T07:56:02.559Z,1002.38
2017-07-18T07:57:12.857Z,1002.37
2017-07-18T07:58:22.845Z,1002.36
2017-07-18T07:59:33.141Z,1002.34
2017-07-18T08:00:43.127Z,1002.33
2017-07-18T08:01:53.462Z,1002.33
2017-07-18T08:03:03.755Z,1002.33
2017-07-18T08:04:14.062Z,1002.36
2017-07-18T08:05:24.365Z,1002.36
2017-07-18T08:06:34.662Z,1002.33
2017-07-18T08:07:44.984Z,1002.33
2017-07-18T08:08:54.977Z,1002.35
2017-07-18T08:10:04.966Z,1002.36
2017-07-18T08:11:15.270Z,1002.35
2017-07-18T08:12:25.286Z,1002.36
2017-07-18T08:13:35.581Z,1002.33
2017-07-18T08:14:45.874Z,1002.32
2017-07-18T08:15:56.161Z,1002.35
2017-07-18T08:17:06.449Z,1002.3
2017-07-18T08:18:16.441Z,1002.3
2017-07-18T08:19:26.877Z,1002.31
2017-07-18T08:20:37.166Z,1002.32
2017-07-18T08:21:47.447Z,1002.34
2017-07-18T08:22:57.440Z,1002.33
2017-07-18T08:24:07.445Z,1002.31
2017-07-18T08:25:17.762Z,1002.29
2017-07-18T08:26:28.059Z,1002.29
2017-07-18T08:27:38.338Z,1002.3
2017-07-18T08:28:48.631Z,1002.27
2017-07-18T08:29:58.922Z,1002.32
2017-07-18T08:31:09.492Z,1002.27
2017-07-18T08:32:23.186Z,1002.31
2017-07-18T08:33:33.157Z,1002.3
2017-07-18T08:34:43.454Z,1002.31
2017-07-18T08:35:53.446Z,1002.3
2017-07-18T08:37:03.752Z,1002.3
2017-07-18T08:38:14.276Z,1002.32
2017-07-18T08:39:24.577Z,1002.3
2017-07-18T08:40:34.867Z,1002.3
2017-07-18T08:41:45.200Z,1002.26
2017-07-18T08:42:55.488Z,1002.3
2017-07-18T08:44:05.782Z,1002.25
2017-07-18T08:45:15.767Z,1002.24
2017-07-18T08:46:26.058Z,1002.23
2017-07-18T08:47:36.345Z,1002.21
2017-07-18T08:48:46.650Z,1002.15
2017-07-18T08:49:56.953Z,1002.18
2017-07-18T08:51:06.933Z,1002.2
2017-07-18T08:52:17.223Z,1002.2
2017-07-18T08:53:27.559Z,1002.18
2017-07-18T08:54:37.245Z,1002.18
2017-07-18T08:55:47.231Z,1002.13
2017-07-18T08:56:57.218Z,1002.15
2017-07-18T08:58:07.522Z,1002.15
2017-07-18T08:59:17.872Z,1002.13
2017-07-18T09:00:28.166Z,1002.08
2017-07-18T09:01:38.465Z,1002.12
2017-07-18T09:02:48.466Z,1002.09
2017-07-18T09:03:58.753Z,1002.12
2017-07-18T09:05:09.119Z,1002.08
2017-07-18T09:06:19.408Z,1002.07
2017-07-18T09:07:29.389Z,1002.03
2017-07-18T09:08:39.686Z,1002.04
2017-07-18T09:09:49.668Z,1002.02
2017-07-18T09:11:00.017Z,1002.03
2017-07-18T09:12:10.327Z,1001.98
2017-07-18T09:13:20.622Z,1001.99
2017-07-18T09:14:30.905Z,1001.98
2017-07-18T09:15:41.185Z,1001.97
2017-07-18T09:16:51.213Z,1001.94
2017-07-18T09:18:01.199Z,1001.91
2017-07-18T09:19:11.497Z,1001.93
2017-07-18T09:20:20.871Z,1001.94
2017-07-18T09:21:31.164Z,1001.92
2017-07-18T09:22:41.154Z,1001.91
2017-07-18T09:23:51.474Z,1001.89
2017-07-18T09:25:01.784Z,1001.81
2017-07-18T09:26:11.765Z,1001.87
2017-07-18T09:27:21.759Z,1001.9
2017-07-18T09:28:31.762Z,1001.84
2017-07-18T09:29:42.068Z,1001.83
2017-07-18T09:30:52.364Z,1001.83
2017-07-18T09:32:02.665Z,1001.87
2017-07-18T09:33:12.949Z,1001.82
2017-07-18T09:34:22.979Z,1001.81
2017-07-18T09:35:32.972Z,1001.79
2017-07-18T09:36:43.263Z,1001.79
2017-07-18T09:37:53.545Z,1001.71
2017-07-18T09:39:03.522Z,1001.75
2017-07-18T09:40:13.811Z,1001.75
2017-07-18T09:41:23.804Z,1001.73
2017-07-18T09:42:33.801Z,1001.67
2017-07-18T09:43:44.085Z,1001.7
2017-07-18T09:44:54.403Z,1001.65
2017-07-18T09:46:04.737Z,1001.67
2017-07-18T09:47:15.022Z,1001.73
2017-07-18T09:48:25.304Z,1001.75
2017-07-18T09:49:35.282Z,1001.71
2017-07-18T09:50:45.571Z,1001.69
2017-07-18T09:51:55.860Z,1001.67
2017-07-18T09:53:06.239Z,1001.69
2017-07-18T09:54:16.544Z,1001.69
2017-07-18T09:55:26.636Z,1001.67
2017-07-18T09:56:36.942Z,1001.68
2017-07-18T09:57:47.005Z,1001.67
2017-07-18T09:58:57.315Z,1001.61
2017-07-18T10:00:07.648Z,1001.55
2017-07-18T10:01:17.942Z,1001.57
2017-07-18T10:02:28.255Z,1001.63
2017-07-18T10:03:38.554Z,1001.63
2017-07-18T10:04:48.851Z,1001.62
2017-07-18T10:05:59.181Z,1001.6
2017-07-18T10:07:09.191Z,1001.57
2017-07-18T10:08:19.497Z,1001.62
2017-07-18T10:09:29.519Z,1001.53
2017-07-18T10:10:39.208Z,1001.51
2017-07-18T10:11:49.206Z,1001.5
2017-07-18T10:12:59.515Z,1001.45
2017-07-18T10:14:09.826Z,1001.49
2017-07-18T10:15:19.863Z,1001.49
2017-07-18T10:16:30.172Z,1001.48
2017-07-18T10:17:40.462Z,1001.5
2017-07-18T10:18:50.457Z,1001.54
2017-07-18T10:20:00.448Z,1001.49
2017-07-18T10:21:10.196Z,1001.51
2017-07-18T10:22:19.888Z,1001.49
2017-07-18T10:23:30.211Z,1001.47
2017-07-18T10:24:40.520Z,1001.4
2017-07-18T10:25:50.835Z,1001.39
2017-07-18T10:27:00.829Z,1001.39
2017-07-18T10:28:11.130Z,1001.36
2017-07-18T10:29:21.443Z,1001.33
2017-07-18T10:30:31.452Z,1001.39
2017-07-18T10:31:41.784Z,1001.37
2017-07-18T10:32:52.135Z,1001.29
2017-07-18T10:34:02.134Z,1001.28
2017-07-18T10:35:12.433Z,1001.23
2017-07-18T10:36:22.437Z,1001.27
2017-07-18T10:37:32.746Z,1001.24
2017-07-18T10:38:43.033Z,1001.24
2017-07-18T10:39:53.325Z,1001.29
2017-07-18T10:41:03.614Z,1001.2
2017-07-18T10:42:13.921Z,1001.23
2017-07-18T10:43:24.254Z,1001.25
2017-07-18T10:44:34.620Z,1001.23
2017-07-18T10:45:44.955Z,1001.23
2017-07-18T10:46:55.257Z,1001.17
2017-07-18T10:48:05.570Z,1001.17
2017-07-18T10:49:15.552Z,1001.16
2017-07-18T10:50:25.867Z,1001.21
2017-07-18T10:51:36.406Z,1001.18
2017-07-18T10:52:46.383Z,1001.17
2017-07-18T10:53:56.454Z,1001.15
2017-07-18T10:55:06.826Z,1001.15
2017-07-18T10:56:17.135Z,1001.14
2017-07-18T10:57:27.129Z,1001.11
2017-07-18T10:58:37.443Z,1001.07
2017-07-18T10:59:47.750Z,1001.05
2017-07-18T11:00:58.066Z,1001.06
2017-07-18T11:02:08.103Z,1001.04
2017-07-18T11:03:18.095Z,1001.05
2017-07-18T11:04:28.408Z,1001.04
2017-07-18T11:05:38.694Z,1001.04
2017-07-18T11:06:48.680Z,1001.07
2017-07-18T11:07:58.973Z,1001.03
2017-07-18T11:09:09.272Z,1001.05
2017-07-18T11:10:19.565Z,1001.04
2017-07-18T11:11:29.252Z,1001.02
2017-07-18T11:12:39.261Z,1000.99
2017-07-18T11:13:49.011Z,1000.98
2017-07-18T11:14:59.317Z,1001.04
2017-07-18T11:16:09.625Z,1001.02
2017-07-18T11:17:19.620Z,1000.97
2017-07-18T11:18:29.911Z,1001.03
2017-07-18T11:19:40.223Z,1001.01
2017-07-18T11:20:50.241Z,1001.03
2017-07-18T11:22:00.226Z,1000.91
2017-07-18T11:23:10.545Z,1000.93
2017-07-18T11:24:20.222Z,1000.98
2017-07-18T11:25:30.577Z,1000.95
2017-07-18T11:26:40.863Z,1000.94
2017-07-18T11:27:51.164Z,1000.97
2017-07-18T11:29:01.476Z,1000.97
2017-07-18T11:30:11.498Z,1000.98
2017-07-18T11:31:21.804Z,1000.92
2017-07-18T11:32:31.796Z,1000.93
2017-07-18T11:33:42.088Z,1000.95
2017-07-18T11:34:52.403Z,1000.87
2017-07-18T11:36:02.379Z,1000.9
2017-07-18T11:37:12.052Z,1000.9
2017-07-18T11:38:22.356Z,1000.84
2017-07-18T11:39:32.683Z,1000.82
2017-07-18T11:40:42.999Z,1000.83
2017-07-18T11:41:52.997Z,1000.77
2017-07-18T11:43:03.325Z,1000.83
2017-07-18T11:44:13.650Z,1000.8
2017-07-18T11:45:23.960Z,1000.74
2017-07-18T11:46:34.273Z,1000.78
2017-07-18T11:47:44.571Z,1000.78
2017-07-18T11:48:54.573Z,1000.78
2017-07-18T11:50:04.857Z,1000.78
2017-07-18T11:51:15.156Z,1000.8
2017-07-18T11:52:25.461Z,1000.81
2017-07-18T11:53:35.754Z,1000.77
2017-07-18T11:54:45.772Z,1000.8
2017-07-18T11:55:56.060Z,1000.81
2017-07-18T11:57:06.058Z,1000.81
2017-07-18T11:58:16.359Z,1000.79
2017-07-18T11:59:26.668Z,1000.87
2017-07-18T12:00:36.709Z,1000.8
2017-07-18T12:01:47.001Z,1000.79
2017-07-18T12:02:57.301Z,1000.79
2017-07-18T12:04:07.306Z,1000.81
2017-07-18T12:05:17.610Z,1000.82
2017-07-18T12:06:27.980Z,1000.77
2017-07-18T12:07:38.289Z,1000.75
2017-07-18T12:08:47.987Z,1000.71
2017-07-18T12:09:58.296Z,1000.63
2017-07-18T12:11:08.300Z,1000.68
2017-07-18T12:12:18.610Z,1000.73
2017-07-18T12:13:28.918Z,1000.73
2017-07-18T12:14:39.242Z,1000.68
2017-07-18T12:15:49.230Z,1000.69
2017-07-18T12:16:59.539Z,1000.72
2017-07-18T12:18:09.899Z,1000.72
2017-07-18T12:19:20.201Z,1000.78
2017-07-18T12:20:30.505Z,1000.71
2017-07-18T12:21:40.816Z,1000.67
2017-07-18T12:22:51.134Z,1000.7
2017-07-18T12:24:01.152Z,1000.65
2017-07-18T12:25:11.167Z,1000.63
2017-07-18T12:26:21.494Z,1000.58
2017-07-18T12:27:31.843Z,1000.59
2017-07-18T12:28:41.821Z,1000.56
2017-07-18T12:29:52.163Z,1000.6
2017-07-18T12:31:02.141Z,1000.49
2017-07-18T12:32:12.450Z,1000.6
2017-07-18T12:33:22.782Z,1000.6
2017-07-18T12:34:32.474Z,1000.65
2017-07-18T12:35:42.817Z,1000.58
2017-07-18T12:36:53.110Z,1000.6
2017-07-18T12:38:03.418Z,1000.58
2017-07-18T12:39:14.002Z,1000.59
2017-07-18T12:40:24.343Z,1000.54
2017-07-18T12:41:34.698Z,1000.53
2017-07-18T12:42:44.995Z,1000.6
2017-07-18T12:43:55.320Z,1000.59
2017-07-18T12:45:05.328Z,1000.61
2017-07-18T12:46:15.635Z,1000.53
2017-07-18T12:47:25.982Z,1000.51
2017-07-18T12:48:36.292Z,1000.57
2017-07-18T12:49:46.579Z,1000.45
2017-07-18T12:50:56.565Z,1000.51
2017-07-18T12:52:06.869Z,1000.57
2017-07-18T12:53:17.225Z,1000.55
2017-07-18T12:54:27.529Z,1000.56
2017-07-18T12:55:37.532Z,1000.55
2017-07-18T12:56:47.529Z,1000.52
2017-07-18T12:57:57.831Z,1000.46
2017-07-18T12:59:08.182Z,1000.48
2017-07-18T13:00:18.497Z,1000.5
2017-07-18T13:01:28.798Z,1000.49
2017-07-18T13:02:38.509Z,1000.46
2017-07-18T13:03:48.515Z,1000.41
2017-07-18T13:04:58.558Z,1000.44
2017-07-18T13:06:08.904Z,1000.38
2017-07-18T13:07:19.205Z,1000.41
2017-07-18T13:08:29.520Z,1000.39
2017-07-18T13:09:39.812Z,1000.42
2017-07-18T13:10:50.173Z,1000.41
2017-07-18T13:12:00.500Z,1000.35
2017-07-18T13:13:10.812Z,1000.34
2017-07-18T13:14:21.134Z,1000.29
2017-07-18T13:15:31.424Z,1000.31
2017-07-18T13:16:41.323Z,1000.28
2017-07-18T13:17:51.629Z,1000.3
2017-07-18T13:19:01.946Z,1000.26
2017-07-18T13:20:11.941Z,1000.21
2017-07-18T13:21:22.260Z,1000.28
2017-07-18T13:22:32.272Z,1000.21
2017-07-18T13:23:42.584Z,1000.2
2017-07-18T13:24:52.903Z,1000.18
2017-07-18T13:26:03.234Z,1000.18
2017-07-18T13:27:13.232Z,1000.16
2017-07-18T13:28:23.568Z,1000.18
2017-07-18T13:29:33.879Z,1000.18
2017-07-18T13:30:44.176Z,1000.15
2017-07-18T13:31:54.208Z,1000.12
2017-07-18T13:33:04.499Z,1000.08
2017-07-18T13:34:14.868Z,1000.08
2017-07-18T13:35:25.321Z,1000
2017-07-18T13:36:35.626Z,999.99
2017-07-18T13:37:45.926Z,1000
2017-07-18T13:38:56.225Z,1000.04
2017-07-18T13:40:06.533Z,1000.02
2017-07-18T13:41:16.212Z,1000.02
2017-07-18T13:42:26.506Z,1000.03
2017-07-18T13:43:36.497Z,1000.08
2017-07-18T13:44:46.817Z,1000.07
2017-07-18T13:45:57.220Z,1000.05
2017-07-18T13:47:07.553Z,1000.04
2017-07-18T13:48:17.868Z,1000.07
2017-07-18T13:49:28.169Z,1000.01
2017-07-18T13:50:38.473Z,999.99
2017-07-18T13:51:48.786Z,999.97
2017-07-18T13:52:58.798Z,999.98
2017-07-18T13:54:08.815Z,999.98
2017-07-18T13:55:19.124Z,999.96
2017-07-18T13:56:29.113Z,999.95
2017-07-18T13:57:39.123Z,999.99
2017-07-18T13:58:49.125Z,999.94
2017-07-18T13:59:59.426Z,999.92
2017-07-18T14:01:09.736Z,999.85
2017-07-18T14:02:19.733Z,999.86
2017-07-18T14:03:30.042Z,999.83
2017-07-18T14:04:40.342Z,999.81
2017-07-18T14:05:50.665Z,999.79
2017-07-18T14:07:00.962Z,999.8
2017-07-18T14:08:11.253Z,999.83
2017-07-18T14:09:21.579Z,999.8
2017-07-18T14:10:31.896Z,999.76
2017-07-18T14:11:41.888Z,999.66
2017-07-18T14:12:52.223Z,999.77
2017-07-18T14:14:02.526Z,999.75
2017-07-18T14:15:12.873Z,999.73
2017-07-18T14:16:22.873Z,999.73
2017-07-18T14:17:33.176Z,999.66
2017-07-18T14:18:43.475Z,999.74
2017-07-18T14:19:53.771Z,999.75
2017-07-18T14:21:04.109Z,999.65
2017-07-18T14:22:14.438Z,999.71
2017-07-18T14:23:24.752Z,999.65
2017-07-18T14:24:35.101Z,999.64
2017-07-18T14:25:45.100Z,999.63
2017-07-18T14:26:55.449Z,999.64
2017-07-18T14:28:05.792Z,999.7
2017-07-18T14:29:16.071Z,999.71
2017-07-18T14:30:26.370Z,999.65
2017-07-18T14:31:36.379Z,999.67
2017-07-18T14:32:46.351Z,999.58
2017-07-18T14:33:56.671Z,999.61
2017-07-18T14:35:07.051Z,999.56
2017-07-18T14:36:17.359Z,999.53
2017-07-18T14:37:27.046Z,999.52
2017-07-18T14:38:37.338Z,999.55
2017-07-18T14:39:47.641Z,999.5
2017-07-18T14:40:57.676Z,999.5
2017-07-18T14:42:07.422Z,999.45
2017-07-18T14:43:17.786Z,999.47
2017-07-18T14:44:27.900Z,999.47